createdAt,value
2022-10-23T00:00:57.048Z,0
2022-10-23T00:01:57.173Z,0
2022-10-23T00:02:57.365Z,0
2022-10-23T00:03:57.667Z,0
2022-10-23T00:04:57.789Z,0
2022-10-23T00:05:57.914Z,0
2022-10-23T00:06:58.046Z,0
2022-10-23T00:07:58.171Z,0
2022-10-23T00:08:58.297Z,0
2022-10-23T00:09:58.434Z,0
2022-10-23T00:10:58.555Z,0
2022-10-23T00:11:58.684Z,0
2022-10-23T00:12:58.808Z,0
2022-10-23T00:13:58.938Z,0
2022-10-23T00:14:59.063Z,0
2022-10-23T00:15:59.203Z,0
2022-10-23T00:16:59.343Z,0
2022-10-23T00:17:59.478Z,0
2022-10-23T00:18:59.605Z,0
2022-10-23T00:19:59.734Z,0
2022-10-23T00:20:59.862Z,0
2022-10-23T00:21:59.985Z,0
2022-10-23T00:23:00.128Z,0
2022-10-23T00:24:00.335Z,0
2022-10-23T00:25:00.664Z,0
2022-10-23T00:26:00.793Z,0
2022-10-23T00:27:00.917Z,0
2022-10-23T00:28:01.046Z,0
2022-10-23T00:29:01.173Z,0
2022-10-23T00:30:01.296Z,0
2022-10-23T00:31:01.421Z,0
2022-10-23T00:32:01.551Z,0
2022-10-23T00:33:01.678Z,0
2022-10-23T00:34:01.805Z,0
2022-10-23T00:35:01.933Z,0
2022-10-23T00:36:02.062Z,0
2022-10-23T00:37:02.186Z,0
2022-10-23T00:38:02.316Z,0
2022-10-23T00:39:02.443Z,0
2022-10-23T00:40:02.573Z,0
2022-10-23T00:41:02.700Z,0
2022-10-23T00:42:02.828Z,0
2022-10-23T00:43:02.954Z,0
2022-10-23T00:44:03.090Z,0
2022-10-23T00:45:03.225Z,0
2022-10-23T00:46:03.352Z,0
2022-10-23T00:47:03.471Z,0
2022-10-23T00:48:03.613Z,0
2022-10-23T00:49:03.772Z,0
2022-10-23T00:50:04.079Z,0
2022-10-23T00:51:04.207Z,0
2022-10-23T00:52:04.325Z,0
2022-10-23T00:53:04.484Z,0
2022-10-23T00:54:23.799Z,0
2022-10-23T00:55:25.829Z,0
2022-10-23T00:56:25.950Z,0
2022-10-23T00:57:26.110Z,0
2022-10-23T00:58:26.314Z,0
2022-10-23T00:59:26.451Z,0
2022-10-23T01:00:26.584Z,0
2022-10-23T01:01:26.807Z,0
2022-10-23T01:02:27.493Z,0
2022-10-23T01:03:27.816Z,0
2022-10-23T01:04:27.937Z,0
2022-10-23T01:05:28.067Z,0
2022-10-23T01:06:28.194Z,0
2022-10-23T01:07:28.324Z,0
2022-10-23T01:08:28.474Z,0
2022-10-23T01:09:28.600Z,0
2022-10-23T01:10:28.724Z,0
2022-10-23T01:11:28.846Z,0
2022-10-23T01:12:28.986Z,0
2022-10-23T01:13:29.118Z,0
2022-10-23T01:14:29.276Z,0
2022-10-23T01:15:29.419Z,0
2022-10-23T01:16:29.602Z,0
2022-10-23T01:17:29.779Z,0
2022-10-23T01:18:29.922Z,0
2022-10-23T01:19:30.057Z,0
2022-10-23T01:20:30.190Z,0
2022-10-23T01:21:30.320Z,0
2022-10-23T01:22:30.451Z,0
2022-10-23T01:23:30.579Z,0
2022-10-23T01:24:30.705Z,0
2022-10-23T01:25:30.830Z,0
2022-10-23T01:26:30.951Z,0
2022-10-23T01:27:31.087Z,0
2022-10-23T01:28:31.220Z,0
2022-10-23T01:29:31.345Z,0
2022-10-23T01:30:31.554Z,0
2022-10-23T01:31:31.962Z,0
2022-10-23T01:32:32.089Z,0
2022-10-23T01:33:32.217Z,0
2022-10-23T01:34:32.343Z,0
2022-10-23T01:35:32.473Z,0
2022-10-23T01:36:32.603Z,0
2022-10-23T01:37:32.726Z,0
2022-10-23T01:38:32.857Z,0
2022-10-23T01:39:32.989Z,0
2022-10-23T01:40:33.118Z,0
2022-10-23T01:41:33.249Z,0
2022-10-23T01:42:33.377Z,0
2022-10-23T01:43:33.504Z,0
2022-10-23T01:44:33.632Z,0
2022-10-23T01:45:33.757Z,0
2022-10-23T01:46:33.883Z,0
2022-10-23T01:47:34.029Z,0
2022-10-23T01:48:34.166Z,0
2022-10-23T01:49:34.318Z,0
2022-10-23T01:50:34.448Z,0
2022-10-23T01:51:34.584Z,0
2022-10-23T01:52:34.705Z,0
2022-10-23T01:53:34.837Z,0
2022-10-23T01:54:34.966Z,0
2022-10-23T01:55:35.138Z,0
2022-10-23T01:56:35.453Z,0
2022-10-23T01:57:35.575Z,0
2022-10-23T01:58:35.699Z,0
2022-10-23T01:59:35.826Z,0
2022-10-23T02:00:35.953Z,0
2022-10-23T02:01:36.203Z,0
2022-10-23T02:02:36.797Z,0
2022-10-23T02:03:37.049Z,0
2022-10-23T02:04:37.183Z,0
2022-10-23T02:05:37.307Z,0
2022-10-23T02:06:37.427Z,0
2022-10-23T02:07:37.547Z,0
2022-10-23T02:08:37.672Z,0
2022-10-23T02:09:37.800Z,0
2022-10-23T02:10:37.924Z,0
2022-10-23T02:11:38.050Z,0
2022-10-23T02:12:38.175Z,0
2022-10-23T02:13:38.316Z,0
2022-10-23T02:14:38.442Z,0
2022-10-23T02:15:39.131Z,0
2022-10-23T02:16:39.255Z,0
2022-10-23T02:17:39.490Z,0
2022-10-23T02:18:40.168Z,0
2022-10-23T02:19:40.291Z,0
2022-10-23T02:20:40.468Z,0
2022-10-23T02:21:40.854Z,0
2022-10-23T02:22:41.203Z,0
2022-10-23T02:23:42.305Z,0
2022-10-23T02:24:42.436Z,0
2022-10-23T02:25:42.560Z,0
2022-10-23T02:26:42.681Z,0
2022-10-23T02:27:42.807Z,0
2022-10-23T02:28:42.933Z,0
2022-10-23T02:29:43.054Z,0
2022-10-23T02:30:43.177Z,0
2022-10-23T02:31:43.302Z,0
2022-10-23T02:32:43.669Z,0
2022-10-23T02:33:44.717Z,0
2022-10-23T02:34:44.841Z,0
2022-10-23T02:35:44.967Z,0
2022-10-23T02:36:45.085Z,0
2022-10-23T02:37:45.424Z,0
2022-10-23T02:38:46.060Z,0
2022-10-23T02:39:46.186Z,0
2022-10-23T02:40:46.313Z,0
2022-10-23T02:41:46.435Z,0
2022-10-23T02:42:46.554Z,0
2022-10-23T02:43:46.690Z,0
2022-10-23T02:44:46.815Z,0
2022-10-23T02:45:46.938Z,0
2022-10-23T02:46:47.068Z,0
2022-10-23T02:47:47.195Z,0
2022-10-23T02:48:47.327Z,0
2022-10-23T02:49:47.451Z,0
2022-10-23T02:50:47.578Z,0
2022-10-23T02:51:47.704Z,0
2022-10-23T02:52:47.827Z,0
2022-10-23T02:53:47.991Z,0
2022-10-23T02:54:48.328Z,0
2022-10-23T02:55:48.458Z,0
2022-10-23T02:56:48.585Z,0
2022-10-23T02:57:48.709Z,0
2022-10-23T02:58:48.837Z,0
2022-10-23T02:59:48.963Z,0
2022-10-23T03:00:49.086Z,0
2022-10-23T03:01:49.321Z,0
2022-10-23T03:02:49.902Z,0
2022-10-23T03:03:50.028Z,0
2022-10-23T03:04:50.158Z,0
2022-10-23T03:05:50.287Z,0
2022-10-23T03:06:50.422Z,0
2022-10-23T03:07:50.545Z,0
2022-10-23T03:08:51.129Z,0
2022-10-23T03:09:51.260Z,0
2022-10-23T03:10:51.402Z,0
2022-10-23T03:11:51.596Z,0
2022-10-23T03:12:51.731Z,0
2022-10-23T03:13:51.864Z,0
2022-10-23T03:14:51.987Z,0
2022-10-23T03:15:52.112Z,0
2022-10-23T03:16:52.239Z,0
2022-10-23T03:17:52.372Z,0
2022-10-23T03:18:52.501Z,0
2022-10-23T03:19:52.646Z,0
2022-10-23T03:20:52.777Z,0
2022-10-23T03:21:52.904Z,0
2022-10-23T03:22:53.027Z,0
2022-10-23T03:23:53.154Z,0
2022-10-23T03:24:53.280Z,0
2022-10-23T03:25:53.403Z,0
2022-10-23T03:26:53.532Z,0
2022-10-23T03:27:53.663Z,0
2022-10-23T03:28:53.790Z,0
2022-10-23T03:29:53.916Z,0
2022-10-23T03:30:54.054Z,0
2022-10-23T03:31:54.186Z,0
2022-10-23T03:32:54.309Z,0
2022-10-23T03:33:54.441Z,0
2022-10-23T03:34:54.560Z,0
2022-10-23T03:35:54.689Z,0
2022-10-23T03:36:54.815Z,0
2022-10-23T03:37:54.937Z,0
2022-10-23T03:38:55.059Z,0
2022-10-23T03:39:55.188Z,0
2022-10-23T03:40:55.311Z,0
2022-10-23T03:41:55.437Z,0
2022-10-23T03:42:55.565Z,0
2022-10-23T03:43:55.720Z,0
2022-10-23T03:44:55.974Z,0
2022-10-23T03:45:56.099Z,0
2022-10-23T03:46:56.218Z,0
2022-10-23T03:47:56.355Z,0
2022-10-23T03:48:56.482Z,0
2022-10-23T03:49:56.606Z,0
2022-10-23T03:50:56.735Z,0
2022-10-23T03:51:56.879Z,0
2022-10-23T03:52:57.005Z,0
2022-10-23T03:53:57.128Z,0
2022-10-23T03:54:57.255Z,0
2022-10-23T03:55:57.383Z,0
2022-10-23T03:56:57.737Z,0
2022-10-23T03:57:58.103Z,0
2022-10-23T03:58:58.229Z,0
2022-10-23T03:59:58.354Z,0
2022-10-23T04:00:58.576Z,0
2022-10-23T04:01:59.185Z,0
2022-10-23T04:02:59.722Z,0
2022-10-23T04:03:59.848Z,0
2022-10-23T04:04:59.977Z,0
2022-10-23T04:06:00.101Z,0
2022-10-23T04:07:00.235Z,0
2022-10-23T04:08:00.522Z,0
2022-10-23T04:09:00.688Z,0
2022-10-23T04:10:01.014Z,0
2022-10-23T04:11:01.137Z,0
2022-10-23T04:12:01.269Z,0
2022-10-23T04:13:01.395Z,0
2022-10-23T04:14:01.526Z,0
2022-10-23T04:15:01.656Z,0
2022-10-23T04:16:01.793Z,0
2022-10-23T04:17:01.911Z,0
2022-10-23T04:18:02.027Z,0
2022-10-23T04:19:02.173Z,0
2022-10-23T04:20:02.303Z,0
2022-10-23T04:21:02.430Z,0
2022-10-23T04:22:02.559Z,0
2022-10-23T04:23:02.695Z,0
2022-10-23T04:24:02.814Z,0
2022-10-23T04:25:02.929Z,0
2022-10-23T04:26:03.042Z,0
2022-10-23T04:27:03.168Z,0
2022-10-23T04:28:03.298Z,0
2022-10-23T04:29:03.424Z,0
2022-10-23T04:30:03.562Z,0
2022-10-23T04:31:03.734Z,0
2022-10-23T04:32:03.855Z,0
2022-10-23T04:33:03.984Z,0
2022-10-23T04:34:10.201Z,0
2022-10-23T04:35:10.345Z,0
2022-10-23T04:36:10.475Z,0
2022-10-23T04:37:10.607Z,0
2022-10-23T04:38:10.735Z,0
2022-10-23T04:39:10.862Z,0
2022-10-23T04:40:10.990Z,0
2022-10-23T04:41:11.120Z,0
2022-10-23T04:42:11.249Z,0
2022-10-23T04:43:11.382Z,0
2022-10-23T04:44:11.507Z,0
2022-10-23T04:45:11.636Z,0
2022-10-23T04:46:11.769Z,0
2022-10-23T04:47:11.898Z,0
2022-10-23T04:48:12.023Z,0
2022-10-23T04:49:12.146Z,0
2022-10-23T04:50:12.270Z,0
2022-10-23T04:51:12.394Z,0
2022-10-23T04:52:12.530Z,0
2022-10-23T04:53:12.659Z,0
2022-10-23T04:54:12.783Z,0
2022-10-23T04:55:12.910Z,0
2022-10-23T04:56:13.035Z,0
2022-10-23T04:57:13.158Z,0
2022-10-23T04:58:13.285Z,0
2022-10-23T04:59:13.409Z,0
2022-10-23T05:00:13.545Z,0
2022-10-23T05:01:13.776Z,0
2022-10-23T05:02:14.392Z,0
2022-10-23T05:03:14.529Z,0
2022-10-23T05:04:14.656Z,0
2022-10-23T05:05:14.782Z,0
2022-10-23T05:06:14.906Z,0
2022-10-23T05:07:15.047Z,0
2022-10-23T05:08:17.075Z,0
2022-10-23T05:09:18.526Z,0
2022-10-23T05:10:18.670Z,0
2022-10-23T05:11:18.798Z,0
2022-10-23T05:12:18.924Z,0
2022-10-23T05:13:19.052Z,0
2022-10-23T05:14:20.634Z,0
2022-10-23T05:15:23.206Z,0
2022-10-23T05:16:23.379Z,0
2022-10-23T05:17:23.528Z,0
2022-10-23T05:18:23.666Z,0
2022-10-23T05:19:24.311Z,0
2022-10-23T05:20:24.787Z,0
2022-10-23T05:21:24.914Z,0
2022-10-23T05:22:25.044Z,0
2022-10-23T05:23:25.180Z,0
2022-10-23T05:24:25.309Z,0
2022-10-23T05:25:25.434Z,0
2022-10-23T05:26:25.557Z,0
2022-10-23T05:27:25.683Z,0
2022-10-23T05:28:25.824Z,0
2022-10-23T05:29:25.961Z,0
2022-10-23T05:30:26.091Z,0
2022-10-23T05:31:26.211Z,0
2022-10-23T05:32:26.337Z,0
2022-10-23T05:33:26.557Z,0
2022-10-23T05:34:26.705Z,1
2022-10-23T05:35:26.843Z,2
2022-10-23T05:36:27.015Z,3
2022-10-23T05:37:27.183Z,4
2022-10-23T05:38:27.313Z,6
2022-10-23T05:39:27.439Z,8
2022-10-23T05:40:27.596Z,10
2022-10-23T05:41:28.066Z,11
2022-10-23T05:42:28.195Z,13
2022-10-23T05:43:28.319Z,15
2022-10-23T05:44:28.443Z,17
2022-10-23T05:45:28.575Z,17
2022-10-23T05:46:28.715Z,21
2022-10-23T05:47:28.839Z,21
2022-10-23T05:48:36.249Z,24
2022-10-23T05:49:36.402Z,27
2022-10-23T05:50:36.520Z,30
2022-10-23T05:51:36.647Z,33
2022-10-23T05:52:36.771Z,37
2022-10-23T05:53:38.720Z,41
2022-10-23T05:54:42.719Z,46
2022-10-23T05:55:42.844Z,57
2022-10-23T05:56:42.971Z,63
2022-10-23T05:57:43.290Z,63
2022-10-23T05:58:44.286Z,70
2022-10-23T05:59:44.413Z,77
2022-10-23T06:00:44.537Z,94
2022-10-23T06:01:44.770Z,110
2022-10-23T06:02:45.271Z,110
2022-10-23T06:03:45.402Z,130
2022-10-23T06:04:45.522Z,150
2022-10-23T06:05:45.649Z,150
2022-10-23T06:06:45.789Z,169.92
2022-10-23T06:07:46.197Z,189.92
2022-10-23T06:08:47.089Z,209.92
2022-10-23T06:09:47.216Z,209.92
2022-10-23T06:10:47.352Z,240
2022-10-23T06:11:47.478Z,269.92
2022-10-23T06:12:47.611Z,300
2022-10-23T06:13:47.744Z,429.76
2022-10-23T06:14:48.019Z,480
2022-10-23T06:15:48.150Z,480
2022-10-23T06:16:48.277Z,429.76
2022-10-23T06:17:48.449Z,429.76
2022-10-23T06:18:48.573Z,379.84
2022-10-23T06:19:48.714Z,379.84
2022-10-23T06:20:48.837Z,379.84
2022-10-23T06:21:48.965Z,379.84
2022-10-23T06:22:49.085Z,379.84
2022-10-23T06:23:49.211Z,419.84
2022-10-23T06:24:49.349Z,539.84
2022-10-23T06:25:49.475Z,600
2022-10-23T06:26:49.609Z,659.84
2022-10-23T06:27:49.738Z,659.84
2022-10-23T06:28:49.867Z,659.84
2022-10-23T06:29:49.997Z,659.84
2022-10-23T06:30:50.137Z,659.84
2022-10-23T06:31:50.290Z,659.84
2022-10-23T06:32:50.422Z,659.84
2022-10-23T06:33:50.552Z,659.84
2022-10-23T06:34:50.673Z,659.84
2022-10-23T06:35:50.805Z,659.84
2022-10-23T06:36:50.927Z,669.44
2022-10-23T06:37:51.055Z,669.44
2022-10-23T06:38:51.228Z,669.44
2022-10-23T06:39:51.457Z,669.44
2022-10-23T06:40:51.591Z,600
2022-10-23T06:41:51.730Z,600
2022-10-23T06:42:51.853Z,600
2022-10-23T06:43:51.981Z,659.84
2022-10-23T06:44:52.124Z,739.84
2022-10-23T06:45:52.247Z,739.84
2022-10-23T06:46:52.373Z,659.84
2022-10-23T06:47:52.510Z,659.84
2022-10-23T06:48:52.649Z,659.84
2022-10-23T06:49:52.773Z,659.84
2022-10-23T06:50:52.902Z,739.84
2022-10-23T06:51:53.028Z,739.84
2022-10-23T06:52:53.161Z,739.84
2022-10-23T06:53:53.282Z,649.92
2022-10-23T06:54:53.406Z,649.92
2022-10-23T06:55:55.262Z,720
2022-10-23T06:56:55.848Z,720
2022-10-23T06:57:55.977Z,720
2022-10-23T06:58:56.121Z,720
2022-10-23T06:59:56.250Z,720
2022-10-23T07:00:56.551Z,720
2022-10-23T07:01:57.113Z,809.6
2022-10-23T07:02:57.265Z,909.44
2022-10-23T07:03:57.397Z,1019.52
2022-10-23T07:04:57.519Z,1019.52
2022-10-23T07:05:57.644Z,1019.52
2022-10-23T07:06:57.790Z,1019.52
2022-10-23T07:07:57.913Z,1280
2022-10-23T07:08:58.048Z,1419.52
2022-10-23T07:09:58.169Z,1419.52
2022-10-23T07:10:58.304Z,1579.52
2022-10-23T07:11:58.435Z,1739.52
2022-10-23T07:12:58.562Z,1939.2
2022-10-23T07:13:58.685Z,1939.2
2022-10-23T07:14:58.810Z,2138.88
2022-10-23T07:15:58.933Z,2138.88
2022-10-23T07:16:59.058Z,2138.88
2022-10-23T07:17:59.180Z,2138.88
2022-10-23T07:18:59.312Z,2138.88
2022-10-23T07:19:59.544Z,1920
2022-10-23T07:20:59.703Z,1719.04
2022-10-23T07:21:59.842Z,1719.04
2022-10-23T07:22:59.966Z,1719.04
2022-10-23T07:24:00.100Z,1719.04
2022-10-23T07:25:00.243Z,1719.04
2022-10-23T07:26:00.375Z,1719.04
2022-10-23T07:27:00.526Z,1719.04
2022-10-23T07:28:00.663Z,1719.04
2022-10-23T07:29:00.801Z,1719.04
2022-10-23T07:30:00.936Z,1719.04
2022-10-23T07:31:01.080Z,1939.2
2022-10-23T07:32:01.206Z,2379.52
2022-10-23T07:33:01.330Z,2379.52
2022-10-23T07:34:01.462Z,2379.52
2022-10-23T07:35:01.675Z,2138.88
2022-10-23T07:36:01.973Z,2359.04
2022-10-23T07:37:02.105Z,2918.4
2022-10-23T07:38:02.231Z,3238.4
2022-10-23T07:39:02.360Z,3238.4
2022-10-23T07:40:02.495Z,2880
2022-10-23T07:41:02.619Z,2259.2
2022-10-23T07:42:02.755Z,2259.2
2022-10-23T07:43:02.887Z,2019.84
2022-10-23T07:44:03.010Z,2019.84
2022-10-23T07:45:03.133Z,2019.84
2022-10-23T07:46:03.263Z,1799.68
2022-10-23T07:47:03.397Z,1799.68
2022-10-23T07:48:03.535Z,1799.68
2022-10-23T07:49:03.664Z,2199.04
2022-10-23T07:50:03.804Z,2439.68
2022-10-23T07:51:03.935Z,2718.72
2022-10-23T07:52:06.123Z,2997.76
2022-10-23T07:53:06.269Z,3637.76
2022-10-23T07:54:06.404Z,4019.2
2022-10-23T07:55:06.537Z,4019.2
2022-10-23T07:56:06.660Z,4019.2
2022-10-23T07:57:06.786Z,4019.2
2022-10-23T07:58:06.917Z,4019.2
2022-10-23T07:59:07.044Z,3599.36
2022-10-23T08:00:07.177Z,3599.36
2022-10-23T08:01:07.340Z,3599.36
2022-10-23T08:02:07.634Z,3599.36
2022-10-23T08:03:07.856Z,3599.36
2022-10-23T08:04:07.988Z,3599.36
2022-10-23T08:05:08.121Z,3599.36
2022-10-23T08:06:08.257Z,3599.36
2022-10-23T08:07:08.396Z,3599.36
2022-10-23T08:08:08.525Z,3599.36
2022-10-23T08:09:08.664Z,3578.88
2022-10-23T08:10:08.792Z,3578.88
2022-10-23T08:11:08.929Z,3578.88
2022-10-23T08:12:09.080Z,3179.52
2022-10-23T08:13:09.239Z,3179.52
2022-10-23T08:14:09.399Z,3179.52
2022-10-23T08:15:09.529Z,3179.52
2022-10-23T08:16:09.661Z,2798.08
2022-10-23T08:17:09.924Z,2179.84
2022-10-23T08:18:10.363Z,1959.68
2022-10-23T08:19:10.620Z,1760
2022-10-23T08:20:10.753Z,1760
2022-10-23T08:21:10.886Z,1939.2
2022-10-23T08:22:11.007Z,2159.36
2022-10-23T08:23:11.153Z,2159.36
2022-10-23T08:24:11.280Z,2379.52
2022-10-23T08:25:11.497Z,2659.84
2022-10-23T08:26:11.828Z,3299.84
2022-10-23T08:27:11.958Z,4119.04
2022-10-23T08:28:12.083Z,4119.04
2022-10-23T08:29:12.213Z,4119.04
2022-10-23T08:30:12.345Z,4119.04
2022-10-23T08:31:12.469Z,4119.04
2022-10-23T08:32:12.602Z,4119.04
2022-10-23T08:33:12.736Z,4538.88
2022-10-23T08:34:12.864Z,4538.88
2022-10-23T08:35:12.995Z,4999.68
2022-10-23T08:36:13.131Z,4480
2022-10-23T08:37:13.261Z,3998.72
2022-10-23T08:38:13.384Z,3599.36
2022-10-23T08:39:13.510Z,3599.36
2022-10-23T08:40:13.639Z,3599.36
2022-10-23T08:41:13.801Z,4518.4
2022-10-23T08:42:13.952Z,4979.2
2022-10-23T08:43:14.102Z,4979.2
2022-10-23T08:44:14.304Z,4979.2
2022-10-23T08:45:14.451Z,4439.04
2022-10-23T08:46:14.592Z,4439.04
2022-10-23T08:47:14.717Z,4958.72
2022-10-23T08:48:14.841Z,4958.72
2022-10-23T08:49:14.981Z,4958.72
2022-10-23T08:50:15.134Z,4958.72
2022-10-23T08:51:15.452Z,4958.72
2022-10-23T08:52:15.577Z,4958.72
2022-10-23T08:53:15.706Z,4958.72
2022-10-23T08:54:15.843Z,4958.72
2022-10-23T08:55:15.972Z,4958.72
2022-10-23T08:56:16.106Z,5498.88
2022-10-23T08:57:16.236Z,5498.88
2022-10-23T08:58:16.368Z,5498.88
2022-10-23T08:59:16.490Z,5498.88
2022-10-23T09:00:16.624Z,5498.88
2022-10-23T09:01:16.923Z,5498.88
2022-10-23T09:02:17.531Z,6056.96
2022-10-23T09:03:17.862Z,6717.44
2022-10-23T09:04:17.992Z,6717.44
2022-10-23T09:05:18.123Z,6717.44
2022-10-23T09:06:18.248Z,6717.44
2022-10-23T09:07:18.374Z,6717.44
2022-10-23T09:08:18.505Z,6717.44
2022-10-23T09:09:18.673Z,6717.44
2022-10-23T09:10:18.801Z,6717.44
2022-10-23T09:11:18.931Z,7398.4
2022-10-23T09:12:19.061Z,7398.4
2022-10-23T09:13:19.188Z,7398.4
2022-10-23T09:14:19.321Z,7398.4
2022-10-23T09:15:19.450Z,7398.4
2022-10-23T09:16:19.586Z,7398.4
2022-10-23T09:17:19.725Z,6656
2022-10-23T09:18:19.850Z,6656
2022-10-23T09:19:19.977Z,6656
2022-10-23T09:20:20.179Z,6656
2022-10-23T09:21:20.575Z,6656
2022-10-23T09:22:20.712Z,6656
2022-10-23T09:23:20.841Z,6656
2022-10-23T09:24:20.976Z,6656
2022-10-23T09:25:21.105Z,6656
2022-10-23T09:26:21.228Z,6656
2022-10-23T09:27:21.351Z,7219.2
2022-10-23T09:28:21.479Z,7976.96
2022-10-23T09:29:21.606Z,8837.12
2022-10-23T09:30:21.733Z,8837.12
2022-10-23T09:31:21.871Z,8837.12
2022-10-23T09:32:22.005Z,8837.12
2022-10-23T09:33:22.135Z,8837.12
2022-10-23T09:34:22.264Z,8837.12
2022-10-23T09:35:22.396Z,8837.12
2022-10-23T09:36:22.520Z,8837.12
2022-10-23T09:37:22.655Z,8837.12
2022-10-23T09:38:22.800Z,8837.12
2022-10-23T09:39:22.937Z,8499.2
2022-10-23T09:40:23.069Z,8499.2
2022-10-23T09:41:23.201Z,8499.2
2022-10-23T09:42:23.329Z,8499.2
2022-10-23T09:43:23.453Z,8499.2
2022-10-23T09:44:23.581Z,9359.36
2022-10-23T09:45:23.703Z,10598.4
2022-10-23T09:46:23.833Z,12195.84
2022-10-23T09:47:23.965Z,13598.72
2022-10-23T09:48:24.103Z,14991.36
2022-10-23T09:49:24.229Z,14991.36
2022-10-23T09:50:24.356Z,14991.36
2022-10-23T09:51:24.486Z,14991.36
2022-10-23T09:52:24.617Z,14991.36
2022-10-23T09:53:24.742Z,14991.36
2022-10-23T09:54:24.870Z,14991.36
2022-10-23T09:55:25.019Z,14991.36
2022-10-23T09:56:25.198Z,16793.6
2022-10-23T09:57:25.332Z,18995.2
2022-10-23T09:58:25.475Z,23592.96
2022-10-23T09:59:25.601Z,26193.92
2022-10-23T10:00:25.722Z,26193.92
2022-10-23T10:01:25.942Z,26193.92
2022-10-23T10:02:26.519Z,26193.92
2022-10-23T10:03:26.672Z,26193.92
2022-10-23T10:04:26.819Z,26193.92
2022-10-23T10:05:26.964Z,28999.68
2022-10-23T10:06:27.172Z,31989.76
2022-10-23T10:07:27.538Z,31989.76
2022-10-23T10:08:31.298Z,31395.84
2022-10-23T10:09:31.432Z,31395.84
2022-10-23T10:10:31.561Z,35184.64
2022-10-23T10:11:31.693Z,35184.64
2022-10-23T10:12:31.820Z,35184.64
2022-10-23T10:13:31.957Z,31580.16
2022-10-23T10:14:32.093Z,31580.16
2022-10-23T10:15:32.303Z,31580.16
2022-10-23T10:16:32.508Z,31580.16
2022-10-23T10:17:32.789Z,31580.16
2022-10-23T10:18:32.916Z,31580.16
2022-10-23T10:19:33.050Z,31580.16
2022-10-23T10:20:33.183Z,31580.16
2022-10-23T10:21:33.313Z,31580.16
2022-10-23T10:22:33.435Z,31580.16
2022-10-23T10:23:33.562Z,33382.4
2022-10-23T10:24:33.698Z,33382.4
2022-10-23T10:25:33.831Z,33382.4
2022-10-23T10:26:33.956Z,33382.4
2022-10-23T10:27:34.080Z,33382.4
2022-10-23T10:28:34.220Z,33382.4
2022-10-23T10:29:34.347Z,33382.4
2022-10-23T10:30:34.488Z,33382.4
2022-10-23T10:31:34.614Z,33382.4
2022-10-23T10:32:34.739Z,36782.08
2022-10-23T10:33:34.887Z,32993.28
2022-10-23T10:34:35.017Z,25784.32
2022-10-23T10:35:35.148Z,20193.28
2022-10-23T10:36:35.340Z,17991.68
2022-10-23T10:37:35.486Z,15994.88
2022-10-23T10:38:35.613Z,14397.44
2022-10-23T10:39:35.738Z,14397.44
2022-10-23T10:40:35.866Z,14397.44
2022-10-23T10:41:35.987Z,14397.44
2022-10-23T10:42:36.120Z,17592.32
2022-10-23T10:43:36.246Z,19793.92
2022-10-23T10:44:36.375Z,19793.92
2022-10-23T10:45:36.510Z,21995.52
2022-10-23T10:46:36.753Z,21995.52
2022-10-23T10:47:36.877Z,19793.92
2022-10-23T10:48:37.010Z,19793.92
2022-10-23T10:49:37.138Z,17397.76
2022-10-23T10:50:37.262Z,13393.92
2022-10-23T10:51:37.391Z,11991.04
2022-10-23T10:52:37.514Z,11991.04
2022-10-23T10:53:37.638Z,11991.04
2022-10-23T10:54:37.770Z,10792.96
2022-10-23T10:55:37.895Z,10792.96
2022-10-23T10:56:38.023Z,10792.96
2022-10-23T10:57:38.148Z,13998.08
2022-10-23T10:58:38.285Z,17192.96
2022-10-23T10:59:38.416Z,17192.96
2022-10-23T11:00:38.553Z,15390.72
2022-10-23T11:01:39.048Z,15390.72
2022-10-23T11:02:39.710Z,13793.28
2022-10-23T11:03:40.238Z,13793.28
2022-10-23T11:04:40.508Z,12390.4
2022-10-23T11:05:40.639Z,12390.4
2022-10-23T11:06:40.765Z,12390.4
2022-10-23T11:07:41.079Z,12390.4
2022-10-23T11:08:49.567Z,10997.76
2022-10-23T11:10:20.813Z,10792.96
2022-10-23T11:11:20.957Z,10792.96
2022-10-23T11:12:21.089Z,10792.96
2022-10-23T11:13:21.209Z,10792.96
2022-10-23T11:14:21.414Z,12390.4
2022-10-23T11:15:21.536Z,13793.28
2022-10-23T11:16:21.662Z,16793.6
2022-10-23T11:17:21.785Z,16793.6
2022-10-23T11:18:21.911Z,18595.84
2022-10-23T11:19:22.047Z,18595.84
2022-10-23T11:20:22.211Z,18595.84
2022-10-23T11:21:22.334Z,18595.84
2022-10-23T11:22:22.462Z,20797.44
2022-10-23T11:23:22.586Z,25784.32
2022-10-23T11:24:22.711Z,25784.32
2022-10-23T11:25:22.835Z,20193.28
2022-10-23T11:26:22.963Z,17797.12
2022-10-23T11:27:23.093Z,15994.88
2022-10-23T11:28:23.216Z,14192.64
2022-10-23T11:29:23.343Z,11192.32
2022-10-23T11:30:23.465Z,9876.48
2022-10-23T11:31:23.598Z,8837.12
2022-10-23T11:32:23.774Z,7936
2022-10-23T11:33:24.034Z,7936
2022-10-23T11:34:24.157Z,7936
2022-10-23T11:35:24.292Z,7936
2022-10-23T11:36:24.416Z,7936
2022-10-23T11:37:24.537Z,7936
2022-10-23T11:38:24.686Z,7936
2022-10-23T11:39:24.817Z,8775.68
2022-10-23T11:40:24.945Z,8775.68
2022-10-23T11:41:26.391Z,9999.36
2022-10-23T11:42:27.525Z,10997.76
2022-10-23T11:43:27.646Z,12195.84
2022-10-23T11:44:27.780Z,15196.16
2022-10-23T11:45:27.910Z,16793.6
2022-10-23T11:46:28.030Z,16793.6
2022-10-23T11:47:28.155Z,18995.2
2022-10-23T11:48:28.286Z,21585.92
2022-10-23T11:49:28.417Z,21585.92
2022-10-23T11:50:28.546Z,23797.76
2022-10-23T11:51:28.676Z,26787.84
2022-10-23T11:52:28.807Z,30781.44
2022-10-23T11:53:28.928Z,30781.44
2022-10-23T11:54:29.079Z,30781.44
2022-10-23T11:55:29.209Z,30781.44
2022-10-23T11:56:29.336Z,33996.8
2022-10-23T11:57:31.575Z,33996.8
2022-10-23T11:58:31.951Z,33996.8
2022-10-23T11:59:32.616Z,30187.52
2022-10-23T12:00:32.748Z,30187.52
2022-10-23T12:01:32.898Z,30187.52
2022-10-23T12:02:33.249Z,30187.52
2022-10-23T12:03:33.797Z,30187.52
2022-10-23T12:04:33.927Z,26787.84
2022-10-23T12:05:34.056Z,23797.76
2022-10-23T12:06:34.189Z,21196.8
2022-10-23T12:07:34.318Z,18995.2
2022-10-23T12:08:34.438Z,18995.2
2022-10-23T12:09:34.566Z,16998.4
2022-10-23T12:10:34.695Z,16998.4
2022-10-23T12:11:34.819Z,16998.4
2022-10-23T12:12:34.944Z,16998.4
2022-10-23T12:13:35.070Z,16998.4
2022-10-23T12:14:35.193Z,16998.4
2022-10-23T12:15:35.386Z,16998.4
2022-10-23T12:16:35.578Z,15196.16
2022-10-23T12:17:35.726Z,13598.72
2022-10-23T12:18:35.940Z,11991.04
2022-10-23T12:19:36.060Z,10792.96
2022-10-23T12:20:36.181Z,9697.28
2022-10-23T12:21:36.307Z,8657.92
2022-10-23T12:22:36.440Z,8657.92
2022-10-23T12:23:36.587Z,8657.92
2022-10-23T12:24:36.715Z,9579.52
2022-10-23T12:25:36.840Z,11796.48
2022-10-23T12:26:36.965Z,14592
2022-10-23T12:27:37.090Z,16394.24
2022-10-23T12:28:37.224Z,18196.48
2022-10-23T12:29:37.376Z,18196.48
2022-10-23T12:30:37.500Z,18196.48
2022-10-23T12:31:37.626Z,16199.68
2022-10-23T12:32:37.753Z,12800
2022-10-23T12:33:37.884Z,11397.12
2022-10-23T12:34:38.008Z,9118.72
2022-10-23T12:35:38.131Z,8038.4
2022-10-23T12:36:38.258Z,7096.32
2022-10-23T12:37:38.392Z,5616.64
2022-10-23T12:38:38.537Z,5616.64
2022-10-23T12:39:38.701Z,4999.68
2022-10-23T12:40:38.836Z,4999.68
2022-10-23T12:41:38.961Z,4999.68
2022-10-23T12:42:39.086Z,5498.88
2022-10-23T12:43:39.234Z,7040
2022-10-23T12:44:39.356Z,9676.8
2022-10-23T12:45:39.490Z,12390.4
2022-10-23T12:46:39.617Z,13793.28
2022-10-23T12:47:39.761Z,13793.28
2022-10-23T12:48:39.910Z,15196.16
2022-10-23T12:49:40.033Z,18995.2
2022-10-23T12:50:40.186Z,21196.8
2022-10-23T12:51:40.311Z,23592.96
2022-10-23T12:52:40.605Z,21196.8
2022-10-23T12:53:41.548Z,21196.8
2022-10-23T12:54:41.674Z,18995.2
2022-10-23T12:55:41.794Z,18995.2
2022-10-23T12:56:41.917Z,18995.2
2022-10-23T12:57:42.338Z,16998.4
2022-10-23T12:58:43.451Z,16998.4
2022-10-23T12:59:43.579Z,15196.16
2022-10-23T13:00:43.707Z,13598.72
2022-10-23T13:01:44.274Z,13598.72
2022-10-23T13:02:52.654Z,12195.84
2022-10-23T13:03:52.787Z,12195.84
2022-10-23T13:04:52.917Z,13598.72
2022-10-23T13:05:53.054Z,13598.72
2022-10-23T13:06:53.183Z,13598.72
2022-10-23T13:07:53.320Z,13598.72
2022-10-23T13:08:53.480Z,13598.72
2022-10-23T13:09:53.605Z,12195.84
2022-10-23T13:10:53.728Z,12195.84
2022-10-23T13:11:53.866Z,12195.84
2022-10-23T13:12:53.997Z,12195.84
2022-10-23T13:13:54.151Z,12195.84
2022-10-23T13:14:54.284Z,12195.84
2022-10-23T13:15:54.417Z,12195.84
2022-10-23T13:16:54.543Z,12195.84
2022-10-23T13:17:54.670Z,12195.84